sensor_id;sensor_type;location;lat;lon;timestamp;P1;durP1;ratioP1;P2;durP2;ratioP2
25509;SDS011;13413;52.336;21.200;2023-08-30T00:01:30;33.30;;;29.50;;
25509;SDS011;13413;52.336;21.200;2023-08-30T00:04:24;36.80;;;33.00;;
25509;SDS011;13413;52.336;21.200;2023-08-30T00:07:18;34.60;;;31.00;;
25509;SDS011;13413;52.336;21.200;2023-08-30T00:10:12;34.00;;;30.40;;
25509;SDS011;13413;52.336;21.200;2023-08-30T00:13:06;33.80;;;29.90;;
25509;SDS011;13413;52.336;21.200;2023-08-30T00:16:00;37.10;;;33.20;;
25509;SDS011;13413;52.336;21.200;2023-08-30T00:18:54;38.60;;;34.50;;
25509;SDS011;13413;52.336;21.200;2023-08-30T00:21:48;34.80;;;31.30;;
25509;SDS011;13413;52.336;21.200;2023-08-30T00:24:42;37.50;;;33.80;;
25509;SDS011;13413;52.336;21.200;2023-08-30T00:27:36;38.90;;;34.90;;
25509;SDS011;13413;52.336;21.200;2023-08-30T00:30:30;39.30;;;35.20;;
25509;SDS011;13413;52.336;21.200;2023-08-30T00:33:24;41.70;;;37.40;;
25509;SDS011;13413;52.336;21.200;2023-08-30T00:36:18;44.10;;;36.00;;
25509;SDS011;13413;52.336;21.200;2023-08-30T00:39:15;40.00;;;35.70;;
25509;SDS011;13413;52.336;21.200;2023-08-30T00:42:09;41.80;;;37.30;;
25509;SDS011;13413;52.336;21.200;2023-08-30T00:45:03;44.60;;;39.30;;
25509;SDS011;13413;52.336;21.200;2023-08-30T00:50:50;45.20;;;39.20;;
25509;SDS011;13413;52.336;21.200;2023-08-30T00:53:44;49.40;;;40.70;;
25509;SDS011;13413;52.336;21.200;2023-08-30T00:56:40;51.90;;;41.70;;
25509;SDS011;13413;52.336;21.200;2023-08-30T00:59:34;50.10;;;40.90;;
25509;SDS011;13413;52.336;21.200;2023-08-30T01:02:29;52.80;;;42.90;;
25509;SDS011;13413;52.336;21.200;2023-08-30T01:08:31;53.50;;;42.10;;
25509;SDS011;13413;52.336;21.200;2023-08-30T01:14:34;41.50;;;36.30;;
25509;SDS011;13413;52.336;21.200;2023-08-30T01:17:34;53.80;;;40.60;;
25509;SDS011;13413;52.336;21.200;2023-08-30T01:20:31;49.00;;;42.70;;
25509;SDS011;13413;52.336;21.200;2023-08-30T01:23:34;42.90;;;37.80;;
25509;SDS011;13413;52.336;21.200;2023-08-30T01:26:37;45.50;;;39.00;;
25509;SDS011;13413;52.336;21.200;2023-08-30T01:29:37;45.20;;;40.10;;
25509;SDS011;13413;52.336;21.200;2023-08-30T01:32:34;44.10;;;38.20;;
25509;SDS011;13413;52.336;21.200;2023-08-30T01:35:33;43.60;;;37.60;;
25509;SDS011;13413;52.336;21.200;2023-08-30T01:38:28;42.50;;;37.20;;
25509;SDS011;13413;52.336;21.200;2023-08-30T01:41:24;44.50;;;38.90;;
25509;SDS011;13413;52.336;21.200;2023-08-30T01:44:19;49.70;;;39.80;;
25509;SDS011;13413;52.336;21.200;2023-08-30T01:47:13;43.90;;;36.10;;
25509;SDS011;13413;52.336;21.200;2023-08-30T02:01:48;55.40;;;40.20;;
25509;SDS011;13413;52.336;21.200;2023-08-30T02:04:43;49.00;;;39.80;;
25509;SDS011;13413;52.336;21.200;2023-08-30T02:07:39;44.70;;;35.80;;
25509;SDS011;13413;52.336;21.200;2023-08-30T02:10:40;44.20;;;35.50;;
25509;SDS011;13413;52.336;21.200;2023-08-30T02:13:38;40.60;;;33.40;;
25509;SDS011;13413;52.336;21.200;2023-08-30T02:16:35;38.30;;;33.50;;
25509;SDS011;13413;52.336;21.200;2023-08-30T02:22:23;37.30;;;32.70;;
25509;SDS011;13413;52.336;21.200;2023-08-30T02:25:17;40.30;;;34.60;;
25509;SDS011;13413;52.336;21.200;2023-08-30T02:28:11;36.70;;;31.60;;
25509;SDS011;13413;52.336;21.200;2023-08-30T02:31:05;37.40;;;31.70;;
25509;SDS011;13413;52.336;21.200;2023-08-30T02:33:59;35.60;;;29.80;;
25509;SDS011;13413;52.336;21.200;2023-08-30T02:36:53;37.60;;;31.10;;
25509;SDS011;13413;52.336;21.200;2023-08-30T02:39:47;31.70;;;28.50;;
25509;SDS011;13413;52.336;21.200;2023-08-30T02:42:44;33.70;;;30.20;;
25509;SDS011;13413;52.336;21.200;2023-08-30T02:47:49;34.70;;;30.40;;
25509;SDS011;13413;52.336;21.200;2023-08-30T02:53:52;31.50;;;28.10;;
25509;SDS011;13413;52.336;21.200;2023-08-30T02:56:45;32.60;;;28.80;;
25509;SDS011;13413;52.336;21.200;2023-08-30T02:59:38;32.50;;;28.70;;
25509;SDS011;13413;52.336;21.200;2023-08-30T03:02:31;33.30;;;29.50;;
25509;SDS011;13413;52.336;21.200;2023-08-30T03:05:24;32.30;;;27.40;;
25509;SDS011;13413;52.336;21.200;2023-08-30T03:08:16;32.00;;;28.60;;
25509;SDS011;13413;52.336;21.200;2023-08-30T03:11:09;34.80;;;29.80;;
25509;SDS011;13413;52.336;21.200;2023-08-30T03:14:02;32.10;;;28.70;;
25509;SDS011;13413;52.336;21.200;2023-08-30T03:16:55;32.30;;;27.90;;
25509;SDS011;13413;52.336;21.200;2023-08-30T03:19:47;32.10;;;28.70;;
25509;SDS011;13413;52.336;21.200;2023-08-30T03:22:40;31.50;;;28.10;;
25509;SDS011;13413;52.336;21.200;2023-08-30T03:25:33;36.60;;;29.40;;
25509;SDS011;13413;52.336;21.200;2023-08-30T03:28:25;32.60;;;29.10;;
25509;SDS011;13413;52.336;21.200;2023-08-30T03:31:18;34.20;;;28.50;;
25509;SDS011;13413;52.336;21.200;2023-08-30T03:34:12;34.50;;;28.30;;
25509;SDS011;13413;52.336;21.200;2023-08-30T03:37:04;36.90;;;30.00;;
25509;SDS011;13413;52.336;21.200;2023-08-30T03:39:57;33.60;;;28.00;;
25509;SDS011;13413;52.336;21.200;2023-08-30T03:42:50;31.00;;;27.50;;
25509;SDS011;13413;52.336;21.200;2023-08-30T03:45:59;34.80;;;29.70;;
25509;SDS011;13413;52.336;21.200;2023-08-30T03:48:53;33.30;;;28.80;;
25509;SDS011;13413;52.336;21.200;2023-08-30T03:51:45;32.10;;;28.70;;
25509;SDS011;13413;52.336;21.200;2023-08-30T03:54:38;34.20;;;29.40;;
25509;SDS011;13413;52.336;21.200;2023-08-30T03:57:30;33.90;;;30.10;;
25509;SDS011;13413;52.336;21.200;2023-08-30T04:00:22;38.90;;;32.10;;
25509;SDS011;13413;52.336;21.200;2023-08-30T04:03:14;36.90;;;30.80;;
25509;SDS011;13413;52.336;21.200;2023-08-30T04:06:07;32.20;;;28.40;;
25509;SDS011;13413;52.336;21.200;2023-08-30T04:09:00;36.30;;;30.50;;
25509;SDS011;13413;52.336;21.200;2023-08-30T04:11:53;40.90;;;30.60;;
25509;SDS011;13413;52.336;21.200;2023-08-30T04:14:45;39.70;;;31.10;;
25509;SDS011;13413;52.336;21.200;2023-08-30T04:17:38;38.80;;;31.90;;
25509;SDS011;13413;52.336;21.200;2023-08-30T04:20:30;39.70;;;32.10;;
25509;SDS011;13413;52.336;21.200;2023-08-30T04:23:23;38.60;;;30.50;;
25509;SDS011;13413;52.336;21.200;2023-08-30T04:26:16;35.70;;;29.50;;
25509;SDS011;13413;52.336;21.200;2023-08-30T04:29:09;38.00;;;29.30;;
25509;SDS011;13413;52.336;21.200;2023-08-30T04:40:33;44.00;;;35.90;;
25509;SDS011;13413;52.336;21.200;2023-08-30T04:43:27;43.80;;;35.30;;
25509;SDS011;13413;52.336;21.200;2023-08-30T04:46:21;44.60;;;35.80;;
25509;SDS011;13413;52.336;21.200;2023-08-30T04:49:14;42.10;;;34.10;;
25509;SDS011;13413;52.336;21.200;2023-08-30T04:52:08;46.00;;;34.30;;
25509;SDS011;13413;52.336;21.200;2023-08-30T04:57:58;47.00;;;36.10;;
25509;SDS011;13413;52.336;21.200;2023-08-30T05:00:52;44.40;;;36.10;;
25509;SDS011;13413;52.336;21.200;2023-08-30T05:03:48;50.70;;;36.20;;
25509;SDS011;13413;52.336;21.200;2023-08-30T05:06:42;46.20;;;35.70;;
25509;SDS011;13413;52.336;21.200;2023-08-30T05:09:37;45.30;;;36.20;;
25509;SDS011;13413;52.336;21.200;2023-08-30T05:12:31;49.80;;;36.30;;
25509;SDS011;13413;52.336;21.200;2023-08-30T05:15:24;46.60;;;35.60;;
25509;SDS011;13413;52.336;21.200;2023-08-30T05:18:19;48.30;;;36.70;;
25509;SDS011;13413;52.336;21.200;2023-08-30T05:21:12;46.40;;;37.00;;
25509;SDS011;13413;52.336;21.200;2023-08-30T05:24:06;46.50;;;36.70;;
25509;SDS011;13413;52.336;21.200;2023-08-30T05:27:01;46.30;;;37.60;;
25509;SDS011;13413;52.336;21.200;2023-08-30T05:29:55;46.10;;;35.00;;
25509;SDS011;13413;52.336;21.200;2023-08-30T05:32:49;47.90;;;34.80;;
25509;SDS011;13413;52.336;21.200;2023-08-30T05:35:44;46.70;;;37.30;;
25509;SDS011;13413;52.336;21.200;2023-08-30T05:38:37;42.90;;;33.40;;
25509;SDS011;13413;52.336;21.200;2023-08-30T05:41:31;47.50;;;35.40;;
25509;SDS011;13413;52.336;21.200;2023-08-30T05:44:26;43.50;;;34.50;;
25509;SDS011;13413;52.336;21.200;2023-08-30T05:47:20;43.80;;;34.20;;
25509;SDS011;13413;52.336;21.200;2023-08-30T05:50:18;43.00;;;35.00;;
25509;SDS011;13413;52.336;21.200;2023-08-30T05:53:11;41.30;;;33.30;;
25509;SDS011;13413;52.336;21.200;2023-08-30T05:56:08;40.50;;;34.00;;
25509;SDS011;13413;52.336;21.200;2023-08-30T05:59:01;44.40;;;35.10;;
25509;SDS011;13413;52.336;21.200;2023-08-30T06:01:55;46.20;;;36.20;;
25509;SDS011;13413;52.336;21.200;2023-08-30T06:04:50;43.70;;;35.40;;
25509;SDS011;13413;52.336;21.200;2023-08-30T06:07:43;41.10;;;33.40;;
25509;SDS011;13413;52.336;21.200;2023-08-30T06:10:37;50.30;;;37.70;;
25509;SDS011;13413;52.336;21.200;2023-08-30T06:13:31;47.60;;;38.20;;
25509;SDS011;13413;52.336;21.200;2023-08-30T06:16:25;54.80;;;40.60;;
25509;SDS011;13413;52.336;21.200;2023-08-30T06:19:19;49.90;;;41.10;;
25509;SDS011;13413;52.336;21.200;2023-08-30T06:22:14;51.40;;;39.60;;
25509;SDS011;13413;52.336;21.200;2023-08-30T06:25:08;53.40;;;41.20;;
25509;SDS011;13413;52.336;21.200;2023-08-30T06:28:02;53.20;;;40.50;;
25509;SDS011;13413;52.336;21.200;2023-08-30T06:30:56;48.60;;;38.00;;
25509;SDS011;13413;52.336;21.200;2023-08-30T06:33:50;66.60;;;40.90;;
25509;SDS011;13413;52.336;21.200;2023-08-30T06:36:44;53.10;;;39.00;;
25509;SDS011;13413;52.336;21.200;2023-08-30T06:39:39;53.80;;;39.00;;
25509;SDS011;13413;52.336;21.200;2023-08-30T06:42:32;50.90;;;38.40;;
25509;SDS011;13413;52.336;21.200;2023-08-30T06:45:26;56.90;;;40.50;;
25509;SDS011;13413;52.336;21.200;2023-08-30T06:48:21;55.50;;;38.50;;
25509;SDS011;13413;52.336;21.200;2023-08-30T06:51:15;52.80;;;39.80;;
25509;SDS011;13413;52.336;21.200;2023-08-30T07:01:24;57.40;;;39.80;;
25509;SDS011;13413;52.336;21.200;2023-08-30T07:04:18;58.40;;;39.50;;
25509;SDS011;13413;52.336;21.200;2023-08-30T07:07:13;55.70;;;39.10;;
25509;SDS011;13413;52.336;21.200;2023-08-30T07:10:08;54.10;;;40.00;;
25509;SDS011;13413;52.336;21.200;2023-08-30T07:13:02;49.90;;;37.80;;
25509;SDS011;13413;52.336;21.200;2023-08-30T07:15:56;55.10;;;40.80;;
25509;SDS011;13413;52.336;21.200;2023-08-30T07:18:50;57.00;;;38.40;;
25509;SDS011;13413;52.336;21.200;2023-08-30T07:21:44;52.00;;;38.60;;
25509;SDS011;13413;52.336;21.200;2023-08-30T07:24:38;51.50;;;38.40;;
25509;SDS011;13413;52.336;21.200;2023-08-30T07:27:32;54.90;;;38.10;;
25509;SDS011;13413;52.336;21.200;2023-08-30T07:30:26;51.20;;;35.90;;
25509;SDS011;13413;52.336;21.200;2023-08-30T07:33:20;45.00;;;33.90;;
25509;SDS011;13413;52.336;21.200;2023-08-30T07:36:14;41.30;;;33.70;;
25509;SDS011;13413;52.336;21.200;2023-08-30T07:39:08;45.60;;;32.80;;
25509;SDS011;13413;52.336;21.200;2023-08-30T07:42:02;39.60;;;30.70;;
25509;SDS011;13413;52.336;21.200;2023-08-30T07:44:57;40.70;;;31.60;;
25509;SDS011;13413;52.336;21.200;2023-08-30T07:47:51;44.50;;;32.30;;
25509;SDS011;13413;52.336;21.200;2023-08-30T07:50:45;46.20;;;34.40;;
25509;SDS011;13413;52.336;21.200;2023-08-30T07:53:39;40.20;;;32.80;;
25509;SDS011;13413;52.336;21.200;2023-08-30T07:56:33;47.70;;;33.80;;
25509;SDS011;13413;52.336;21.200;2023-08-30T07:59:29;45.10;;;33.60;;
25509;SDS011;13413;52.336;21.200;2023-08-30T08:02:24;42.00;;;32.30;;
25509;SDS011;13413;52.336;21.200;2023-08-30T08:05:18;46.80;;;31.20;;
25509;SDS011;13413;52.336;21.200;2023-08-30T08:08:12;53.30;;;36.80;;
25509;SDS011;13413;52.336;21.200;2023-08-30T08:11:06;56.70;;;35.60;;
25509;SDS011;13413;52.336;21.200;2023-08-30T08:14:00;53.50;;;37.90;;
25509;SDS011;13413;52.336;21.200;2023-08-30T08:16:54;48.30;;;37.90;;
25509;SDS011;13413;52.336;21.200;2023-08-30T08:19:48;45.30;;;34.90;;
25509;SDS011;13413;52.336;21.200;2023-08-30T08:22:42;48.20;;;35.10;;
25509;SDS011;13413;52.336;21.200;2023-08-30T08:25:36;43.80;;;34.10;;
25509;SDS011;13413;52.336;21.200;2023-08-30T08:28:30;45.50;;;33.10;;
25509;SDS011;13413;52.336;21.200;2023-08-30T08:31:24;45.10;;;33.10;;
25509;SDS011;13413;52.336;21.200;2023-08-30T08:34:18;49.20;;;35.50;;
25509;SDS011;13413;52.336;21.200;2023-08-30T08:37:12;47.40;;;35.20;;
25509;SDS011;13413;52.336;21.200;2023-08-30T08:40:07;44.90;;;33.50;;
25509;SDS011;13413;52.336;21.200;2023-08-30T08:45:53;42.90;;;32.80;;
25509;SDS011;13413;52.336;21.200;2023-08-30T08:48:51;45.40;;;34.00;;
25509;SDS011;13413;52.336;21.200;2023-08-30T08:51:48;41.00;;;32.00;;
25509;SDS011;13413;52.336;21.200;2023-08-30T08:54:42;33.10;;;28.10;;
25509;SDS011;13413;52.336;21.200;2023-08-30T08:57:37;39.50;;;29.60;;
25509;SDS011;13413;52.336;21.200;2023-08-30T09:00:31;34.00;;;27.40;;
25509;SDS011;13413;52.336;21.200;2023-08-30T09:03:25;30.70;;;25.90;;
25509;SDS011;13413;52.336;21.200;2023-08-30T09:06:20;28.20;;;24.20;;
25509;SDS011;13413;52.336;21.200;2023-08-30T09:09:14;25.80;;;21.00;;
25509;SDS011;13413;52.336;21.200;2023-08-30T09:21:12;21.90;;;19.00;;
25509;SDS011;13413;52.336;21.200;2023-08-30T09:24:06;21.70;;;18.80;;
25509;SDS011;13413;52.336;21.200;2023-08-30T09:27:00;23.40;;;18.90;;
25509;SDS011;13413;52.336;21.200;2023-08-30T09:29:59;21.00;;;18.00;;
25509;SDS011;13413;52.336;21.200;2023-08-30T09:33:00;22.60;;;19.30;;
25509;SDS011;13413;52.336;21.200;2023-08-30T09:35:54;23.10;;;18.60;;
25509;SDS011;13413;52.336;21.200;2023-08-30T09:38:49;23.90;;;20.10;;
25509;SDS011;13413;52.336;21.200;2023-08-30T09:41:43;30.90;;;22.40;;
25509;SDS011;13413;52.336;21.200;2023-08-30T09:44:38;24.80;;;20.80;;
25509;SDS011;13413;52.336;21.200;2023-08-30T09:47:31;23.30;;;19.80;;
25509;SDS011;13413;52.336;21.200;2023-08-30T09:50:25;19.30;;;16.80;;
25509;SDS011;13413;52.336;21.200;2023-08-30T09:56:14;19.10;;;14.50;;
25509;SDS011;13413;52.336;21.200;2023-08-30T09:59:08;20.10;;;14.90;;
25509;SDS011;13413;52.336;21.200;2023-08-30T10:02:03;16.50;;;12.90;;
25509;SDS011;13413;52.336;21.200;2023-08-30T10:05:00;10.90;;;8.40;;
25509;SDS011;13413;52.336;21.200;2023-08-30T10:10:48;8.70;;;7.50;;
25509;SDS011;13413;52.336;21.200;2023-08-30T10:13:42;6.90;;;5.40;;
25509;SDS011;13413;52.336;21.200;2023-08-30T10:16:40;5.20;;;4.70;;
25509;SDS011;13413;52.336;21.200;2023-08-30T10:19:35;5.90;;;3.90;;
25509;SDS011;13413;52.336;21.200;2023-08-30T10:22:31;5.00;;;3.20;;
25509;SDS011;13413;52.336;21.200;2023-08-30T10:25:27;3.60;;;3.20;;
25509;SDS011;13413;52.336;21.200;2023-08-30T10:28:24;6.20;;;4.80;;
25509;SDS011;13413;52.336;21.200;2023-08-30T10:31:18;5.20;;;4.70;;
25509;SDS011;13413;52.336;21.200;2023-08-30T10:34:14;6.00;;;5.30;;
25509;SDS011;13413;52.336;21.200;2023-08-30T10:37:09;5.60;;;5.10;;
25509;SDS011;13413;52.336;21.200;2023-08-30T10:40:04;4.00;;;3.70;;
25509;SDS011;13413;52.336;21.200;2023-08-30T10:43:00;4.00;;;3.60;;
25509;SDS011;13413;52.336;21.200;2023-08-30T10:48:52;3.80;;;3.40;;
25509;SDS011;13413;52.336;21.200;2023-08-30T10:51:53;8.90;;;4.40;;
25509;SDS011;13413;52.336;21.200;2023-08-30T10:54:49;4.10;;;3.80;;
25509;SDS011;13413;52.336;21.200;2023-08-30T11:00:38;4.10;;;3.40;;
25509;SDS011;13413;52.336;21.200;2023-08-30T11:03:34;4.40;;;3.80;;
25509;SDS011;13413;52.336;21.200;2023-08-30T11:06:28;4.60;;;4.20;;
25509;SDS011;13413;52.336;21.200;2023-08-30T11:09:23;4.40;;;4.00;;
25509;SDS011;13413;52.336;21.200;2023-08-30T11:12:17;5.00;;;4.60;;
25509;SDS011;13413;52.336;21.200;2023-08-30T11:15:12;4.90;;;4.40;;
25509;SDS011;13413;52.336;21.200;2023-08-30T11:18:06;5.90;;;5.40;;
25509;SDS011;13413;52.336;21.200;2023-08-30T11:21:00;5.90;;;5.40;;
25509;SDS011;13413;52.336;21.200;2023-08-30T11:23:54;6.20;;;5.60;;
25509;SDS011;13413;52.336;21.200;2023-08-30T11:26:53;7.00;;;6.40;;
25509;SDS011;13413;52.336;21.200;2023-08-30T11:29:48;7.90;;;7.20;;
25509;SDS011;13413;52.336;21.200;2023-08-30T11:41:29;7.90;;;7.10;;
25509;SDS011;13413;52.336;21.200;2023-08-30T11:44:25;8.30;;;7.50;;
25509;SDS011;13413;52.336;21.200;2023-08-30T11:47:22;7.70;;;7.00;;
25509;SDS011;13413;52.336;21.200;2023-08-30T11:50:16;7.70;;;7.00;;
25509;SDS011;13413;52.336;21.200;2023-08-30T11:53:10;7.80;;;7.10;;
25509;SDS011;13413;52.336;21.200;2023-08-30T11:56:04;8.40;;;7.60;;
25509;SDS011;13413;52.336;21.200;2023-08-30T11:58:59;8.60;;;7.70;;
25509;SDS011;13413;52.336;21.200;2023-08-30T12:01:53;8.30;;;7.60;;
25509;SDS011;13413;52.336;21.200;2023-08-30T12:04:48;9.70;;;8.70;;
25509;SDS011;13413;52.336;21.200;2023-08-30T12:07:45;11.40;;;8.30;;
25509;SDS011;13413;52.336;21.200;2023-08-30T12:10:39;8.40;;;7.50;;
25509;SDS011;13413;52.336;21.200;2023-08-30T12:13:33;9.00;;;8.00;;
25509;SDS011;13413;52.336;21.200;2023-08-30T12:16:27;8.80;;;7.90;;
25509;SDS011;13413;52.336;21.200;2023-08-30T12:19:21;10.10;;;9.00;;
25509;SDS011;13413;52.336;21.200;2023-08-30T12:25:18;5.70;;;5.20;;
25509;SDS011;13413;52.336;21.200;2023-08-30T12:28:15;6.80;;;6.20;;
25509;SDS011;13413;52.336;21.200;2023-08-30T12:31:09;6.80;;;6.10;;
25509;SDS011;13413;52.336;21.200;2023-08-30T12:34:03;7.00;;;5.60;;
25509;SDS011;13413;52.336;21.200;2023-08-30T12:36:57;6.50;;;5.80;;
25509;SDS011;13413;52.336;21.200;2023-08-30T12:39:51;8.00;;;6.80;;
25509;SDS011;13413;52.336;21.200;2023-08-30T12:42:45;8.20;;;6.60;;
25509;SDS011;13413;52.336;21.200;2023-08-30T12:45:40;6.70;;;6.10;;
25509;SDS011;13413;52.336;21.200;2023-08-30T12:48:34;7.00;;;6.00;;
25509;SDS011;13413;52.336;21.200;2023-08-30T12:51:28;8.20;;;5.80;;
25509;SDS011;13413;52.336;21.200;2023-08-30T12:54:22;7.20;;;5.90;;
25509;SDS011;13413;52.336;21.200;2023-08-30T12:57:16;5.70;;;5.10;;
25509;SDS011;13413;52.336;21.200;2023-08-30T13:00:11;5.60;;;5.10;;
25509;SDS011;13413;52.336;21.200;2023-08-30T13:03:06;5.50;;;4.80;;
25509;SDS011;13413;52.336;21.200;2023-08-30T13:06:01;5.50;;;5.10;;
25509;SDS011;13413;52.336;21.200;2023-08-30T13:08:55;5.80;;;5.30;;
25509;SDS011;13413;52.336;21.200;2023-08-30T13:11:49;5.50;;;5.00;;
25509;SDS011;13413;52.336;21.200;2023-08-30T13:14:43;5.10;;;4.70;;
25509;SDS011;13413;52.336;21.200;2023-08-30T13:17:37;6.50;;;5.30;;
25509;SDS011;13413;52.336;21.200;2023-08-30T13:20:37;5.20;;;4.70;;
25509;SDS011;13413;52.336;21.200;2023-08-30T13:26:38;6.20;;;5.60;;
25509;SDS011;13413;52.336;21.200;2023-08-30T13:32:39;6.50;;;5.60;;
25509;SDS011;13413;52.336;21.200;2023-08-30T13:38:30;7.10;;;6.20;;
25509;SDS011;13413;52.336;21.200;2023-08-30T13:41:24;7.10;;;6.40;;
25509;SDS011;13413;52.336;21.200;2023-08-30T13:44:18;7.60;;;6.50;;
25509;SDS011;13413;52.336;21.200;2023-08-30T13:47:12;9.00;;;6.20;;
25509;SDS011;13413;52.336;21.200;2023-08-30T13:50:07;8.30;;;6.80;;
25509;SDS011;13413;52.336;21.200;2023-08-30T13:55:45;11.30;;;8.80;;
25509;SDS011;13413;52.336;21.200;2023-08-30T13:58:40;11.10;;;8.90;;
25509;SDS011;13413;52.336;21.200;2023-08-30T14:01:34;10.80;;;9.70;;
25509;SDS011;13413;52.336;21.200;2023-08-30T14:04:28;17.80;;;10.50;;
25509;SDS011;13413;52.336;21.200;2023-08-30T14:07:22;11.60;;;10.00;;
25509;SDS011;13413;52.336;21.200;2023-08-30T14:10:16;12.70;;;10.50;;
25509;SDS011;13413;52.336;21.200;2023-08-30T14:13:10;12.10;;;10.80;;
25509;SDS011;13413;52.336;21.200;2023-08-30T14:16:04;12.10;;;10.90;;
25509;SDS011;13413;52.336;21.200;2023-08-30T14:18:58;11.10;;;9.90;;
25509;SDS011;13413;52.336;21.200;2023-08-30T14:21:52;11.40;;;10.30;;
25509;SDS011;13413;52.336;21.200;2023-08-30T14:24:46;12.40;;;11.10;;
25509;SDS011;13413;52.336;21.200;2023-08-30T14:27:40;11.20;;;10.10;;
25509;SDS011;13413;52.336;21.200;2023-08-30T14:30:34;10.80;;;9.80;;
25509;SDS011;13413;52.336;21.200;2023-08-30T14:33:28;10.90;;;9.90;;
25509;SDS011;13413;52.336;21.200;2023-08-30T14:36:22;10.70;;;9.20;;
25509;SDS011;13413;52.336;21.200;2023-08-30T14:39:16;10.10;;;9.10;;
25509;SDS011;13413;52.336;21.200;2023-08-30T14:42:10;11.20;;;10.10;;
25509;SDS011;13413;52.336;21.200;2023-08-30T14:45:05;10.30;;;9.40;;
25509;SDS011;13413;52.336;21.200;2023-08-30T14:48:00;9.90;;;9.00;;
25509;SDS011;13413;52.336;21.200;2023-08-30T14:50:54;9.60;;;8.70;;
25509;SDS011;13413;52.336;21.200;2023-08-30T14:56:55;8.30;;;7.40;;
25509;SDS011;13413;52.336;21.200;2023-08-30T14:59:48;7.60;;;6.80;;
25509;SDS011;13413;52.336;21.200;2023-08-30T15:02:42;7.70;;;6.90;;
25509;SDS011;13413;52.336;21.200;2023-08-30T15:05:36;7.70;;;6.40;;
25509;SDS011;13413;52.336;21.200;2023-08-30T15:08:30;7.70;;;7.10;;
25509;SDS011;13413;52.336;21.200;2023-08-30T15:11:24;7.40;;;6.70;;
25509;SDS011;13413;52.336;21.200;2023-08-30T15:14:18;7.50;;;6.80;;
25509;SDS011;13413;52.336;21.200;2023-08-30T15:17:13;7.40;;;6.50;;
25509;SDS011;13413;52.336;21.200;2023-08-30T15:20:08;7.00;;;6.40;;
25509;SDS011;13413;52.336;21.200;2023-08-30T15:23:03;6.80;;;6.20;;
25509;SDS011;13413;52.336;21.200;2023-08-30T15:25:56;6.40;;;5.70;;
25509;SDS011;13413;52.336;21.200;2023-08-30T15:28:50;6.70;;;6.00;;
25509;SDS011;13413;52.336;21.200;2023-08-30T15:31:44;7.50;;;6.20;;
25509;SDS011;13413;52.336;21.200;2023-08-30T15:34:38;6.10;;;5.50;;
25509;SDS011;13413;52.336;21.200;2023-08-30T15:37:32;7.70;;;6.60;;
25509;SDS011;13413;52.336;21.200;2023-08-30T15:40:26;8.80;;;6.40;;
25509;SDS011;13413;52.336;21.200;2023-08-30T15:43:20;7.30;;;6.60;;
25509;SDS011;13413;52.336;21.200;2023-08-30T15:46:14;7.50;;;6.00;;
25509;SDS011;13413;52.336;21.200;2023-08-30T15:49:08;8.00;;;6.50;;
25509;SDS011;13413;52.336;21.200;2023-08-30T15:52:02;9.00;;;8.20;;
25509;SDS011;13413;52.336;21.200;2023-08-30T15:54:56;8.40;;;7.50;;
25509;SDS011;13413;52.336;21.200;2023-08-30T15:57:50;7.30;;;6.60;;
25509;SDS011;13413;52.336;21.200;2023-08-30T16:00:44;14.90;;;10.20;;
25509;SDS011;13413;52.336;21.200;2023-08-30T16:03:38;15.30;;;13.90;;
25509;SDS011;13413;52.336;21.200;2023-08-30T16:06:32;30.10;;;27.10;;
25509;SDS011;13413;52.336;21.200;2023-08-30T16:12:12;9.40;;;6.50;;
25509;SDS011;13413;52.336;21.200;2023-08-30T16:15:07;9.30;;;7.20;;
25509;SDS011;13413;52.336;21.200;2023-08-30T16:18:01;7.90;;;6.60;;
25509;SDS011;13413;52.336;21.200;2023-08-30T16:20:55;9.10;;;8.20;;
25509;SDS011;13413;52.336;21.200;2023-08-30T16:23:49;8.70;;;7.40;;
25509;SDS011;13413;52.336;21.200;2023-08-30T16:26:43;8.00;;;7.20;;
25509;SDS011;13413;52.336;21.200;2023-08-30T16:29:37;9.20;;;8.30;;
25509;SDS011;13413;52.336;21.200;2023-08-30T16:32:31;7.60;;;6.80;;
25509;SDS011;13413;52.336;21.200;2023-08-30T16:35:25;6.90;;;6.20;;
25509;SDS011;13413;52.336;21.200;2023-08-30T16:38:19;10.20;;;6.90;;
25509;SDS011;13413;52.336;21.200;2023-08-30T16:41:13;9.90;;;9.00;;
25509;SDS011;13413;52.336;21.200;2023-08-30T16:47:14;7.80;;;6.40;;
25509;SDS011;13413;52.336;21.200;2023-08-30T16:50:11;7.60;;;6.90;;
25509;SDS011;13413;52.336;21.200;2023-08-30T16:53:05;6.60;;;5.30;;
25509;SDS011;13413;52.336;21.200;2023-08-30T16:56:00;5.70;;;5.20;;
25509;SDS011;13413;52.336;21.200;2023-08-30T16:58:54;5.30;;;4.80;;
25509;SDS011;13413;52.336;21.200;2023-08-30T17:02:05;6.20;;;4.80;;
25509;SDS011;13413;52.336;21.200;2023-08-30T17:04:59;5.20;;;4.30;;
25509;SDS011;13413;52.336;21.200;2023-08-30T17:07:53;5.40;;;4.30;;
25509;SDS011;13413;52.336;21.200;2023-08-30T17:10:47;6.90;;;4.20;;
25509;SDS011;13413;52.336;21.200;2023-08-30T17:13:41;7.40;;;4.00;;
25509;SDS011;13413;52.336;21.200;2023-08-30T17:16:35;5.20;;;4.70;;
25509;SDS011;13413;52.336;21.200;2023-08-30T17:19:29;4.10;;;3.80;;
25509;SDS011;13413;52.336;21.200;2023-08-30T17:22:23;5.20;;;4.70;;
25509;SDS011;13413;52.336;21.200;2023-08-30T17:25:17;6.80;;;4.20;;
25509;SDS011;13413;52.336;21.200;2023-08-30T17:28:11;4.80;;;4.30;;
25509;SDS011;13413;52.336;21.200;2023-08-30T17:31:05;8.90;;;5.00;;
25509;SDS011;13413;52.336;21.200;2023-08-30T17:33:59;5.20;;;4.70;;
25509;SDS011;13413;52.336;21.200;2023-08-30T17:36:53;7.10;;;4.30;;
25509;SDS011;13413;52.336;21.200;2023-08-30T17:39:47;5.50;;;5.00;;
25509;SDS011;13413;52.336;21.200;2023-08-30T17:42:41;5.30;;;4.70;;
25509;SDS011;13413;52.336;21.200;2023-08-30T17:45:35;5.40;;;4.90;;
25509;SDS011;13413;52.336;21.200;2023-08-30T17:48:29;5.80;;;5.30;;
25509;SDS011;13413;52.336;21.200;2023-08-30T17:51:23;6.80;;;5.60;;
25509;SDS011;13413;52.336;21.200;2023-08-30T17:54:17;5.50;;;5.00;;
25509;SDS011;13413;52.336;21.200;2023-08-30T17:57:13;6.50;;;5.80;;
25509;SDS011;13413;52.336;21.200;2023-08-30T18:00:08;7.20;;;5.60;;
25509;SDS011;13413;52.336;21.200;2023-08-30T18:03:03;9.10;;;6.40;;
25509;SDS011;13413;52.336;21.200;2023-08-30T18:06:00;7.10;;;6.40;;
25509;SDS011;13413;52.336;21.200;2023-08-30T18:08:55;9.40;;;6.70;;
25509;SDS011;13413;52.336;21.200;2023-08-30T18:11:49;8.50;;;6.10;;
25509;SDS011;13413;52.336;21.200;2023-08-30T18:14:43;8.70;;;7.40;;
25509;SDS011;13413;52.336;21.200;2023-08-30T18:17:37;11.80;;;7.90;;
25509;SDS011;13413;52.336;21.200;2023-08-30T18:20:31;8.80;;;7.90;;
25509;SDS011;13413;52.336;21.200;2023-08-30T18:23:25;8.30;;;7.50;;
25509;SDS011;13413;52.336;21.200;2023-08-30T18:35:26;12.40;;;10.10;;
25509;SDS011;13413;52.336;21.200;2023-08-30T18:38:20;12.50;;;10.60;;
25509;SDS011;13413;52.336;21.200;2023-08-30T18:41:14;12.60;;;10.60;;
25509;SDS011;13413;52.336;21.200;2023-08-30T18:44:07;15.80;;;10.60;;
25509;SDS011;13413;52.336;21.200;2023-08-30T18:47:01;12.90;;;9.70;;
25509;SDS011;13413;52.336;21.200;2023-08-30T18:49:56;12.50;;;9.60;;